Huvudsida
METAR-TAF:

METAR-TAF

Flygplatser :

Jendouba, Tunisien

latitud: 36-29N, longitud: 008-48E, höjd: 143 m

Aktuellt väderrapport

Denna rapport gjordes för 42 minuter sedan, klockan 19:00 UTC
Vind 7 kt från nord/nordväst, varierande mellan väst/nordväst och nord
Temperatur 16°C
Fuktighet 72%
Tryck 1022 hPa
Sikt 10 km eller mer
Inga moln under 1 500 m eller inga cumulonimbus

METAR: DTTN 281900Z 33007KT 300V360 CAVOK 16/11 Q1022

Tid: 20:42 (19:42 UTC)


TAF: saknas

Aktuella väderrapporter och prognoser från 4000 flygplatser (METAR- och TAF-rapporter).

De tillgängliga stationerna syns som gula och röda prickar på kartan.

För musen över prickarna för att se namnen på stationerna.

Klicka sedan för att få väderrapporter och prognoser.

För att ändra kartan: Klicka på de gröna knapparna med ett svart kors på för att zooma in; den gröna knappen med ett streck på för att zooma ut; eller på de gröna pilarna för angränsande kartor.


METAR-TAF: